createdAt,value
2018-06-05T00:02:01.200Z,11.10
2018-06-05T00:04:28.345Z,11.73
2018-06-05T00:06:55.481Z,10.33
2018-06-05T00:09:22.629Z,13.17
2018-06-05T00:11:49.759Z,11.97
2018-06-05T00:14:16.909Z,11.83
2018-06-05T00:16:44.063Z,12.10
2018-06-05T00:19:11.236Z,11.93
2018-06-05T00:21:38.425Z,11.60
2018-06-05T00:24:05.636Z,11.40
2018-06-05T00:26:32.825Z,10.77
2018-06-05T00:28:59.999Z,12.03
2018-06-05T00:31:27.160Z,11.60
2018-06-05T00:33:54.370Z,12.00
2018-06-05T00:36:21.554Z,11.40
2018-06-05T00:38:48.724Z,15.90
2018-06-05T00:41:15.864Z,12.90
2018-06-05T00:43:43.032Z,12.30
2018-06-05T00:46:10.242Z,11.87
2018-06-05T00:48:37.421Z,12.83
2018-06-05T00:51:16.014Z,11.70
2018-06-05T00:53:43.188Z,11.90
2018-06-05T00:56:10.343Z,12.80
2018-06-05T00:58:37.486Z,12.37
2018-06-05T01:01:04.669Z,12.60
2018-06-05T01:03:31.857Z,11.83
2018-06-05T01:05:59.080Z,12.70
2018-06-05T01:08:26.256Z,13.43
2018-06-05T01:10:53.404Z,12.77
2018-06-05T01:13:20.583Z,12.37
2018-06-05T01:15:47.741Z,13.50
2018-06-05T01:18:14.897Z,13.07
2018-06-05T01:20:42.032Z,11.93
2018-06-05T01:23:09.176Z,12.63
2018-06-05T01:25:36.380Z,11.60
2018-06-05T01:28:03.543Z,13.30
2018-06-05T01:30:30.777Z,12.70
2018-06-05T01:32:57.975Z,13.07
2018-06-05T01:35:25.536Z,13.30
2018-06-05T01:37:52.711Z,12.63
2018-06-05T01:40:19.867Z,13.10
2018-06-05T01:42:47.037Z,12.70
2018-06-05T01:45:14.217Z,12.60
2018-06-05T01:47:41.377Z,13.00
2018-06-05T01:50:08.519Z,12.13
2018-06-05T01:52:35.696Z,13.83
2018-06-05T01:55:03.007Z,13.77
2018-06-05T01:57:30.150Z,13.67
2018-06-05T01:59:57.359Z,12.20
2018-06-05T02:02:24.534Z,13.13
2018-06-05T02:04:51.680Z,15.00
2018-06-05T02:07:18.845Z,13.87
2018-06-05T02:09:45.977Z,12.90
2018-06-05T02:12:13.102Z,13.30
2018-06-05T02:14:40.228Z,13.03
2018-06-05T02:17:07.340Z,13.97
2018-06-05T02:19:34.533Z,13.83
2018-06-05T02:22:01.672Z,13.93
2018-06-05T02:24:28.845Z,16.77
2018-06-05T02:26:55.993Z,13.40
2018-06-05T02:29:23.204Z,13.93
2018-06-05T02:31:50.328Z,13.90
2018-06-05T02:34:17.546Z,14.00
2018-06-05T02:36:44.667Z,13.40
2018-06-05T02:39:12.209Z,13.83
2018-06-05T02:41:39.308Z,17.53
2018-06-05T02:44:06.529Z,13.90
2018-06-05T02:46:33.662Z,13.97
2018-06-05T02:49:00.801Z,14.33
2018-06-05T02:51:27.929Z,13.80
2018-06-05T02:53:55.028Z,13.83
2018-06-05T02:56:22.179Z,14.17
2018-06-05T02:58:50.137Z,14.40
2018-06-05T03:01:17.352Z,14.63
2018-06-05T03:03:44.515Z,16.20
2018-06-05T03:06:11.659Z,14.50
2018-06-05T03:08:38.806Z,15.33
2018-06-05T03:11:06.000Z,17.40
2018-06-05T03:13:33.185Z,15.03
2018-06-05T03:16:00.311Z,14.83
2018-06-05T03:18:27.443Z,13.83
2018-06-05T03:20:54.567Z,15.13
2018-06-05T03:23:21.861Z,16.43
2018-06-05T03:25:49.036Z,13.53
2018-06-05T03:28:16.169Z,16.57
2018-06-05T03:30:43.369Z,14.50
2018-06-05T03:33:10.517Z,14.57
2018-06-05T03:35:37.717Z,13.87
2018-06-05T03:38:04.829Z,14.70
2018-06-05T03:40:31.908Z,14.97
2018-06-05T03:42:59.038Z,13.03
2018-06-05T03:45:26.143Z,15.23
2018-06-05T03:47:53.252Z,15.10
2018-06-05T03:50:20.332Z,17.83
2018-06-05T03:52:47.468Z,13.93
2018-06-05T03:55:14.572Z,13.87
2018-06-05T03:57:41.760Z,14.77
2018-06-05T04:00:08.945Z,14.70
2018-06-05T04:02:36.128Z,14.53
2018-06-05T04:05:03.244Z,15.47
2018-06-05T04:07:30.425Z,15.33
2018-06-05T04:09:57.605Z,15.60
2018-06-05T04:12:24.711Z,14.27
2018-06-05T04:14:51.837Z,15.10
2018-06-05T04:17:18.951Z,14.87
2018-06-05T04:19:46.212Z,15.73
2018-06-05T04:22:13.328Z,15.33
2018-06-05T04:24:40.450Z,14.63
2018-06-05T04:27:07.700Z,17.60
2018-06-05T04:29:34.812Z,14.00
2018-06-05T04:32:02.045Z,13.57
2018-06-05T04:34:29.128Z,14.70
2018-06-05T04:36:56.308Z,15.07
2018-06-05T04:39:23.557Z,15.90
2018-06-05T04:41:50.704Z,16.07
2018-06-05T04:44:17.836Z,16.03
2018-06-05T04:46:44.953Z,17.17
2018-06-05T04:49:12.121Z,16.10
2018-06-05T04:51:39.235Z,16.87
2018-06-05T04:54:06.386Z,15.47
2018-06-05T04:56:33.594Z,15.60
2018-06-05T04:59:00.711Z,15.40
2018-06-05T05:01:27.837Z,19.37
2018-06-05T05:03:54.961Z,14.93
2018-06-05T05:06:22.109Z,16.07
2018-06-05T05:08:49.272Z,16.67
2018-06-05T05:11:16.385Z,15.10
2018-06-05T05:13:43.525Z,15.87
2018-06-05T05:16:10.695Z,16.57
2018-06-05T05:18:37.844Z,15.97
2018-06-05T05:21:05.000Z,16.57
2018-06-05T05:23:32.152Z,16.50
2018-06-05T05:25:59.320Z,16.67
2018-06-05T05:28:26.433Z,19.30
2018-06-05T05:30:53.602Z,20.83
2018-06-05T05:33:20.737Z,18.90
2018-06-05T05:35:47.896Z,19.43
2018-06-05T05:38:15.039Z,21.60
2018-06-05T05:40:42.190Z,21.93
2018-06-05T05:43:09.352Z,19.70
2018-06-05T05:45:36.473Z,18.00
2018-06-05T05:48:03.653Z,19.30
2018-06-05T05:50:30.768Z,18.43
2018-06-05T05:52:57.913Z,18.30
2018-06-05T05:55:25.029Z,18.93
2018-06-05T05:57:52.181Z,16.70
2018-06-05T06:00:19.333Z,17.53
2018-06-05T06:02:46.471Z,16.10
2018-06-05T06:05:13.593Z,15.77
2018-06-05T06:07:40.696Z,17.30
2018-06-05T06:10:07.845Z,16.97
2018-06-05T06:12:34.985Z,17.97
2018-06-05T06:15:02.176Z,16.10
2018-06-05T06:17:29.277Z,16.27
2018-06-05T06:19:56.396Z,16.57
2018-06-05T06:22:23.549Z,16.77
2018-06-05T06:24:50.722Z,14.13
2018-06-05T06:27:17.845Z,15.70
2018-06-05T06:29:45.020Z,17.07
2018-06-05T06:32:12.236Z,15.90
2018-06-05T06:34:39.364Z,15.40
2018-06-05T06:37:06.471Z,15.00
2018-06-05T06:39:33.614Z,14.90
2018-06-05T06:42:00.739Z,15.23
2018-06-05T06:44:27.893Z,14.33
2018-06-05T06:46:55.037Z,16.43
2018-06-05T06:49:22.133Z,16.03
2018-06-05T06:51:49.241Z,15.53
2018-06-05T06:54:16.352Z,14.53
2018-06-05T06:56:43.544Z,16.23
2018-06-05T06:59:10.702Z,15.13
2018-06-05T07:01:37.860Z,15.77
2018-06-05T07:04:05.023Z,14.87
2018-06-05T07:06:32.132Z,13.40
2018-06-05T07:08:59.268Z,16.53
2018-06-05T07:11:26.433Z,15.93
2018-06-05T07:13:53.604Z,14.10
2018-06-05T07:16:20.688Z,14.50
2018-06-05T07:18:47.936Z,15.40
2018-06-05T07:21:15.096Z,16.43
2018-06-05T07:23:42.271Z,14.67
2018-06-05T07:26:09.439Z,14.60
2018-06-05T07:28:36.614Z,15.10
2018-06-05T07:31:03.750Z,16.53
2018-06-05T07:33:30.873Z,14.40
2018-06-05T07:35:58.058Z,15.30
2018-06-05T07:38:25.186Z,15.80
2018-06-05T07:40:52.349Z,16.10
2018-06-05T07:43:19.541Z,15.80
2018-06-05T07:45:46.688Z,16.10
2018-06-05T07:48:13.830Z,13.73
2018-06-05T07:50:40.972Z,15.33
2018-06-05T07:53:08.124Z,15.33
2018-06-05T07:55:35.257Z,15.77
2018-06-05T07:58:02.450Z,16.10
2018-06-05T08:00:29.555Z,15.00
2018-06-05T08:02:56.670Z,14.70
2018-06-05T08:05:23.750Z,15.00
2018-06-05T08:07:50.897Z,14.20
2018-06-05T08:10:18.073Z,14.53
2018-06-05T08:12:45.197Z,15.27
2018-06-05T08:15:12.394Z,14.37
2018-06-05T08:17:39.557Z,13.73
2018-06-05T08:20:06.699Z,16.30
2018-06-05T08:22:45.833Z,12.53
2018-06-05T08:25:12.999Z,13.57
2018-06-05T08:27:40.153Z,12.87
2018-06-05T08:30:07.292Z,13.50
2018-06-05T08:32:34.408Z,11.83
2018-06-05T08:35:01.522Z,11.03
2018-06-05T08:37:28.657Z,10.77
2018-06-05T08:39:55.823Z,12.70
2018-06-05T08:42:22.962Z,12.53
2018-06-05T08:44:50.143Z,12.23
2018-06-05T08:47:17.311Z,10.20
2018-06-05T08:49:44.504Z,11.00
2018-06-05T08:52:11.641Z,11.03
2018-06-05T08:54:38.808Z,12.03
2018-06-05T08:57:06.016Z,12.50
2018-06-05T08:59:33.192Z,10.97
2018-06-05T09:02:00.333Z,11.03
2018-06-05T09:04:27.535Z,12.17
2018-06-05T09:06:54.687Z,11.23
2018-06-05T09:09:21.849Z,11.53
2018-06-05T09:11:48.976Z,11.70
2018-06-05T09:14:16.095Z,11.83
2018-06-05T09:16:43.255Z,11.43
2018-06-05T09:19:10.359Z,10.07
2018-06-05T09:21:37.490Z,9.73
2018-06-05T09:24:04.648Z,10.20
2018-06-05T09:26:31.793Z,11.73
2018-06-05T09:28:58.984Z,10.07
2018-06-05T09:31:26.086Z,12.20
2018-06-05T09:33:53.232Z,10.80
2018-06-05T09:36:20.356Z,9.50
2018-06-05T09:38:47.484Z,10.47
2018-06-05T09:41:14.630Z,9.73
2018-06-05T09:43:41.761Z,10.00
2018-06-05T09:46:08.968Z,9.43
2018-06-05T09:48:36.092Z,9.53
2018-06-05T09:51:03.297Z,8.37
2018-06-05T09:53:30.429Z,9.10
2018-06-05T09:55:57.591Z,9.47
2018-06-05T09:58:24.899Z,9.50
2018-06-05T10:00:52.732Z,8.37
2018-06-05T10:03:20.565Z,9.17
2018-06-05T10:05:47.776Z,8.73
2018-06-05T10:08:14.956Z,9.17
2018-06-05T10:10:42.092Z,9.67
2018-06-05T10:13:09.330Z,9.10
2018-06-05T10:15:36.511Z,8.70
2018-06-05T10:18:03.985Z,10.37
2018-06-05T10:20:31.129Z,10.30
2018-06-05T10:22:58.248Z,11.23
2018-06-05T10:25:25.396Z,9.50
2018-06-05T10:27:52.565Z,12.43
2018-06-05T10:30:19.720Z,10.87
2018-06-05T10:32:46.888Z,13.63
2018-06-05T10:35:14.010Z,9.90
2018-06-05T10:37:41.172Z,8.80
2018-06-05T10:40:08.335Z,10.30
2018-06-05T10:42:35.483Z,9.23
2018-06-05T10:45:02.753Z,8.77
2018-06-05T10:47:29.926Z,10.13
2018-06-05T10:49:57.067Z,7.87
2018-06-05T10:52:24.213Z,8.03
2018-06-05T10:54:51.327Z,7.87
2018-06-05T10:57:18.530Z,9.00
2018-06-05T10:59:45.699Z,8.90
2018-06-05T11:02:12.873Z,8.33
2018-06-05T11:04:40.040Z,8.67
2018-06-05T11:07:07.177Z,7.80
2018-06-05T11:09:34.272Z,9.10
2018-06-05T11:12:01.414Z,9.73
2018-06-05T11:14:28.574Z,7.90
2018-06-05T11:16:55.729Z,8.90
2018-06-05T11:19:22.848Z,8.67
2018-06-05T11:21:50.035Z,9.10
2018-06-05T11:24:17.177Z,9.53
2018-06-05T11:26:44.301Z,9.13
2018-06-05T11:29:11.435Z,8.17
2018-06-05T11:31:38.590Z,8.47
2018-06-05T11:34:05.753Z,9.67
2018-06-05T11:36:32.969Z,10.00
2018-06-05T11:39:00.065Z,10.07
2018-06-05T11:41:27.236Z,9.80
2018-06-05T11:43:54.371Z,9.67
2018-06-05T11:46:21.520Z,9.33
2018-06-05T11:48:48.645Z,10.10
2018-06-05T11:51:15.809Z,10.23
2018-06-05T11:53:42.905Z,9.47
2018-06-05T11:56:10.011Z,9.63
2018-06-05T11:58:37.181Z,9.50
2018-06-05T12:01:04.376Z,10.20
2018-06-05T12:03:31.565Z,10.50
2018-06-05T12:05:59.508Z,10.47
2018-06-05T12:08:26.684Z,9.47
2018-06-05T12:10:53.798Z,10.30
2018-06-05T12:13:20.990Z,8.10
2018-06-05T12:15:48.185Z,10.30
2018-06-05T12:18:15.364Z,9.43
2018-06-05T12:20:42.500Z,8.70
2018-06-05T12:23:09.373Z,9.40
2018-06-05T12:25:36.582Z,10.03
2018-06-05T12:28:03.732Z,9.77
2018-06-05T12:30:30.907Z,11.20
2018-06-05T12:32:58.082Z,9.43
2018-06-05T12:35:25.256Z,9.87
2018-06-05T12:37:52.417Z,9.97
2018-06-05T12:40:19.596Z,9.77
2018-06-05T12:42:46.728Z,10.57
2018-06-05T12:45:13.892Z,9.20
2018-06-05T12:47:41.051Z,9.20
2018-06-05T12:50:08.168Z,9.43
2018-06-05T12:52:35.321Z,9.80
2018-06-05T12:55:02.492Z,10.23
2018-06-05T12:57:29.669Z,9.30
2018-06-05T12:59:58.846Z,9.70
2018-06-05T13:02:26.052Z,11.80
2018-06-05T13:04:53.231Z,11.67
2018-06-05T13:07:20.408Z,11.87
2018-06-05T13:09:47.541Z,13.30
2018-06-05T13:12:14.681Z,11.33
2018-06-05T13:14:41.880Z,11.20
2018-06-05T13:17:09.013Z,11.63
2018-06-05T13:19:36.185Z,10.93
2018-06-05T13:22:03.388Z,11.70
2018-06-05T13:24:30.501Z,10.77
2018-06-05T13:27:02.810Z,10.77
2018-06-05T13:29:29.952Z,10.93
2018-06-05T13:31:57.100Z,12.20
2018-06-05T13:34:24.256Z,9.33
2018-06-05T13:36:51.363Z,9.53
2018-06-05T13:39:18.633Z,9.70
2018-06-05T13:41:45.746Z,11.30
2018-06-05T13:44:12.888Z,10.07
2018-06-05T13:46:40.026Z,10.90
2018-06-05T13:49:07.149Z,11.03
2018-06-05T13:51:34.233Z,11.10
2018-06-05T13:54:01.371Z,10.50
2018-06-05T13:56:28.532Z,9.63
2018-06-05T13:58:55.676Z,12.83
2018-06-05T14:01:22.806Z,9.60
2018-06-05T14:03:49.969Z,10.10
2018-06-05T14:06:17.132Z,9.70
2018-06-05T14:08:44.299Z,9.47
2018-06-05T14:11:11.464Z,10.17
2018-06-05T14:13:38.617Z,10.87
2018-06-05T14:16:05.764Z,10.00
2018-06-05T14:18:32.866Z,10.20
2018-06-05T14:21:00.007Z,9.90
2018-06-05T14:23:27.209Z,8.43
2018-06-05T14:25:54.353Z,8.90
2018-06-05T14:28:21.516Z,9.13
2018-06-05T14:30:48.691Z,8.50
2018-06-05T14:33:15.830Z,9.70
2018-06-05T14:35:42.956Z,9.07
2018-06-05T14:38:10.124Z,8.90
2018-06-05T14:40:37.271Z,9.57
2018-06-05T14:43:04.393Z,9.43
2018-06-05T14:45:31.544Z,9.63
2018-06-05T14:47:58.688Z,10.50
2018-06-05T14:50:25.833Z,9.10
2018-06-05T14:52:52.996Z,8.40
2018-06-05T14:55:20.189Z,9.60
2018-06-05T14:57:47.385Z,9.50
2018-06-05T15:00:14.492Z,9.00
2018-06-05T15:02:41.617Z,9.83
2018-06-05T15:05:08.791Z,10.17
2018-06-05T15:07:35.942Z,9.90
2018-06-05T15:10:03.228Z,8.60
2018-06-05T15:12:30.407Z,10.33
2018-06-05T15:14:57.563Z,9.00
2018-06-05T15:17:24.754Z,9.50
2018-06-05T15:19:51.880Z,10.20
2018-06-05T15:22:19.022Z,9.37
2018-06-05T15:24:46.161Z,10.13
2018-06-05T15:27:13.297Z,10.03
2018-06-05T15:29:40.439Z,9.70
2018-06-05T15:32:07.590Z,8.77
2018-06-05T15:34:34.916Z,9.30
2018-06-05T15:37:02.124Z,9.27
2018-06-05T15:39:29.381Z,8.80
2018-06-05T15:41:56.674Z,9.63
2018-06-05T15:44:25.682Z,9.63
2018-06-05T15:46:53.983Z,9.60
2018-06-05T15:49:21.194Z,10.87
2018-06-05T15:51:48.320Z,10.07
2018-06-05T15:54:15.547Z,9.60
2018-06-05T15:56:42.688Z,9.43
2018-06-05T15:59:09.861Z,10.20
2018-06-05T16:01:37.003Z,9.80
2018-06-05T16:04:04.496Z,9.57
2018-06-05T16:06:31.602Z,13.57
2018-06-05T16:08:58.800Z,9.90
2018-06-05T16:11:25.950Z,10.33
2018-06-05T16:13:53.110Z,12.13
2018-06-05T16:16:20.292Z,10.70
2018-06-05T16:18:47.472Z,10.43
2018-06-05T16:21:14.608Z,10.13
2018-06-05T16:23:41.747Z,9.47
2018-06-05T16:26:08.893Z,9.37
2018-06-05T16:28:36.019Z,10.50
2018-06-05T16:31:03.190Z,11.60
2018-06-05T16:33:30.361Z,13.17
2018-06-05T16:35:57.552Z,11.83
2018-06-05T16:38:24.749Z,15.50
2018-06-05T16:40:51.957Z,12.83
2018-06-05T16:43:19.101Z,17.53
2018-06-05T16:45:46.349Z,13.30
2018-06-05T16:48:13.522Z,14.67
2018-06-05T16:50:40.677Z,15.97
2018-06-05T16:53:07.847Z,15.80
2018-06-05T16:55:35.000Z,18.07
2018-06-05T16:58:02.152Z,15.63
2018-06-05T17:00:29.305Z,17.33
2018-06-05T17:02:56.457Z,19.23
2018-06-05T17:05:23.648Z,20.27
2018-06-05T17:07:50.802Z,19.57
2018-06-05T17:10:17.941Z,14.57
2018-06-05T17:12:45.191Z,14.53
2018-06-05T17:15:12.416Z,14.70
2018-06-05T17:17:39.557Z,16.40
2018-06-05T17:20:06.713Z,16.70
2018-06-05T17:22:33.886Z,16.27
2018-06-05T17:25:01.061Z,16.70
2018-06-05T17:27:28.286Z,11.80
2018-06-05T17:29:55.363Z,14.80
2018-06-05T17:32:22.589Z,13.73
2018-06-05T17:34:49.794Z,11.50
2018-06-05T17:37:17.013Z,12.93
2018-06-05T17:39:44.177Z,12.90
2018-06-05T17:42:11.334Z,11.80
2018-06-05T17:44:38.536Z,14.33
2018-06-05T17:47:05.709Z,16.37
2018-06-05T17:49:32.860Z,15.03
2018-06-05T17:52:00.025Z,16.20
2018-06-05T17:54:27.234Z,16.60
2018-06-05T17:56:54.386Z,15.80
2018-06-05T17:59:21.558Z,15.10
2018-06-05T18:01:48.736Z,17.57
2018-06-05T18:04:15.926Z,15.57
2018-06-05T18:06:43.088Z,15.97
2018-06-05T18:09:10.237Z,15.60
2018-06-05T18:11:37.431Z,15.73
2018-06-05T18:14:04.550Z,14.10
2018-06-05T18:16:31.702Z,15.53
2018-06-05T18:18:58.881Z,17.70
2018-06-05T18:21:26.091Z,16.23
2018-06-05T18:23:53.381Z,15.63
2018-06-05T18:26:20.533Z,17.37
2018-06-05T18:28:47.646Z,16.77
2018-06-05T18:31:14.800Z,17.50
2018-06-05T18:33:41.970Z,17.00
2018-06-05T18:36:09.193Z,17.57
2018-06-05T18:38:36.337Z,17.30
2018-06-05T18:41:03.525Z,18.07
2018-06-05T18:43:30.693Z,16.40
2018-06-05T18:45:57.830Z,18.73
2018-06-05T18:48:24.999Z,18.07
2018-06-05T18:50:52.156Z,19.27
2018-06-05T18:53:26.164Z,17.90
2018-06-05T18:55:53.432Z,17.03
2018-06-05T18:58:20.592Z,18.60
2018-06-05T19:00:47.777Z,18.80
2018-06-05T19:03:15.028Z,19.83
2018-06-05T19:05:42.221Z,19.10
2018-06-05T19:08:09.374Z,18.37
2018-06-05T19:10:36.522Z,21.00
2018-06-05T19:13:03.672Z,17.33
2018-06-05T19:15:30.865Z,18.80
2018-06-05T19:17:58.078Z,20.10
2018-06-05T19:20:25.259Z,18.30
2018-06-05T19:22:52.366Z,19.40
2018-06-05T19:25:19.589Z,18.67
2018-06-05T19:27:46.763Z,18.73
2018-06-05T19:30:14.016Z,19.63
2018-06-05T19:32:41.204Z,17.60
2018-06-05T19:35:08.341Z,18.53
2018-06-05T19:37:35.489Z,20.33
2018-06-05T19:40:02.670Z,19.13
2018-06-05T19:42:29.845Z,19.63
2018-06-05T19:44:56.992Z,19.67
2018-06-05T19:47:24.149Z,21.03
2018-06-05T19:49:51.340Z,20.70
2018-06-05T19:52:18.493Z,19.47
2018-06-05T19:54:45.701Z,21.30
2018-06-05T19:57:13.891Z,21.17
2018-06-05T19:59:41.068Z,18.83
2018-06-05T20:02:08.225Z,22.20
2018-06-05T20:17:39.997Z,20.47
2018-06-05T20:20:07.260Z,21.57
2018-06-05T20:22:34.449Z,21.17
2018-06-05T20:25:01.650Z,22.17
2018-06-05T20:27:28.840Z,20.33
2018-06-05T20:29:55.978Z,20.50
2018-06-05T20:32:23.176Z,21.23
2018-06-05T20:34:50.373Z,22.97
2018-06-05T20:37:17.556Z,28.73
2018-06-05T20:39:44.728Z,20.63
2018-06-05T20:42:11.884Z,24.50
2018-06-05T20:44:39.061Z,21.97
2018-06-05T20:47:06.376Z,22.13
2018-06-05T20:49:33.578Z,24.80
2018-06-05T20:52:00.815Z,22.70
2018-06-05T20:54:27.934Z,24.13
2018-06-05T20:56:55.152Z,23.70
2018-06-05T20:59:22.340Z,23.73
2018-06-05T21:01:49.516Z,22.20
2018-06-05T21:04:16.854Z,25.60
2018-06-05T21:06:43.977Z,23.07
2018-06-05T21:09:11.167Z,22.93
2018-06-05T21:11:38.387Z,23.10
2018-06-05T21:14:05.504Z,25.43
2018-06-05T21:16:32.636Z,23.93
2018-06-05T21:18:59.778Z,23.77
2018-06-05T21:21:26.960Z,23.57
2018-06-05T21:23:54.086Z,22.73
2018-06-05T21:26:21.248Z,24.20
2018-06-05T21:28:48.395Z,22.93
2018-06-05T21:31:15.554Z,23.50
2018-06-05T21:33:42.813Z,24.30
2018-06-05T21:36:09.939Z,24.73
2018-06-05T21:38:37.124Z,24.23
2018-06-05T21:41:04.293Z,23.50
2018-06-05T21:43:31.412Z,25.30
2018-06-05T21:45:58.571Z,22.87
2018-06-05T21:48:25.720Z,23.37
2018-06-05T21:50:52.847Z,26.23
2018-06-05T21:53:19.983Z,23.90
2018-06-05T21:55:47.129Z,24.30
2018-06-05T21:58:14.368Z,25.43
2018-06-05T22:00:41.568Z,25.43
2018-06-05T22:03:08.717Z,26.53
2018-06-05T22:05:35.866Z,23.83
2018-06-05T22:08:03.015Z,24.20
2018-06-05T22:10:30.183Z,27.20
2018-06-05T22:12:57.293Z,25.47
2018-06-05T22:15:24.416Z,25.97
2018-06-05T22:17:51.593Z,29.60
2018-06-05T22:20:18.753Z,27.00
2018-06-05T22:22:45.908Z,31.73
2018-06-05T22:25:13.047Z,29.20
2018-06-05T22:27:40.179Z,26.40
2018-06-05T22:30:07.284Z,30.17
2018-06-05T22:32:34.427Z,26.13
2018-06-05T22:35:01.657Z,37.37
2018-06-05T22:37:28.799Z,31.20
2018-06-05T22:39:55.927Z,27.47
2018-06-05T22:42:23.037Z,28.13
2018-06-05T22:44:50.200Z,29.87
2018-06-05T22:47:17.336Z,29.13
2018-06-05T22:49:44.476Z,29.37
2018-06-05T22:52:11.585Z,31.37
2018-06-05T22:54:38.713Z,29.73
2018-06-05T22:57:05.913Z,31.17
2018-06-05T22:59:33.045Z,31.40
2018-06-05T23:02:00.226Z,36.07
2018-06-05T23:04:27.353Z,31.23
2018-06-05T23:06:54.507Z,29.83
2018-06-05T23:09:21.605Z,43.13
2018-06-05T23:11:48.714Z,34.33
2018-06-05T23:14:15.823Z,33.63
2018-06-05T23:16:43.032Z,32.83
2018-06-05T23:19:10.150Z,32.77
2018-06-05T23:21:37.297Z,35.23
2018-06-05T23:24:04.481Z,36.10
2018-06-05T23:26:31.688Z,38.20
2018-06-05T23:28:58.822Z,36.93
2018-06-05T23:31:25.972Z,43.07
2018-06-05T23:33:53.232Z,37.60
2018-06-05T23:36:20.321Z,36.77
2018-06-05T23:38:47.481Z,35.50
2018-06-05T23:41:14.580Z,37.63
2018-06-05T23:43:41.724Z,38.80
2018-06-05T23:46:08.835Z,37.73
2018-06-05T23:48:35.964Z,40.90
2018-06-05T23:51:03.075Z,34.57
2018-06-05T23:53:30.216Z,38.80
2018-06-05T23:55:57.372Z,36.53
2018-06-05T23:58:24.500Z,39.17
